Time;durP1;ratioP1;P1;durP2;ratioP2;P2;SDS_P1;SDS_P2;PMS_P1;PMS_P2;Temp;Humidity;BMP_temperature;BMP_pressure;BME280_temperature;BME280_humidity;BME280_pressure;Samples;Min_cycle;Max_cycle;Signal;HPM_P1;HPM_P2
2024/01/20 00:00:41;;;;;;;39.22;19.13;;;0.40;99.90;;;1.33;100.00;101429.84;4938461;29;20043;-81
2024/01/20 00:03:06;;;;;;;36.80;19.38;;;0.30;99.90;;;1.32;100.00;101441.56;4952205;28;20499;-81
2024/01/20 00:05:32;;;;;;;31.48;17.80;;;0.30;99.90;;;1.35;100.00;101446.69;4949438;28;20034;-80
2024/01/20 00:07:58;;;;;;;38.58;18.90;;;0.30;99.90;;;1.36;100.00;101448.41;4955291;28;20498;-79
2024/01/20 00:10:23;;;;;;;36.85;18.92;;;0.40;99.90;;;1.32;100.00;101453.19;4939267;28;20082;-80
2024/01/20 00:12:49;;;;;;;34.28;18.88;;;0.40;99.90;;;1.33;100.00;101452.19;4948121;29;20460;-81
2024/01/20 00:15:15;;;;;;;41.42;20.00;;;0.40;99.90;;;1.33;100.00;101430.69;4937265;28;20045;-81
2024/01/20 00:17:41;;;;;;;36.28;18.45;;;0.30;99.90;;;1.29;100.00;101442.69;4942847;29;20051;-81
2024/01/20 00:20:08;;;;;;;36.65;18.35;;;0.30;99.90;;;1.27;100.00;101442.81;4944841;29;20078;-80
2024/01/20 00:22:34;;;;;;;40.65;18.58;;;0.30;99.90;;;1.25;100.00;101434.03;4959846;28;20451;-80
2024/01/20 00:25:02;;;;;;;36.13;19.23;;;0.30;99.90;;;1.26;100.00;101449.19;4942093;29;20067;-80
2024/01/20 00:27:29;;;;;;;37.67;18.77;;;0.30;99.90;;;1.35;100.00;101436.78;4947580;28;20065;-80
2024/01/20 00:29:55;;;;;;;38.80;18.77;;;0.30;99.90;;;1.38;100.00;101457.19;4941739;28;20043;-80
2024/01/20 00:32:21;;;;;;;36.90;17.95;;;0.30;99.90;;;1.36;100.00;101443.00;4936991;28;20102;-80
2024/01/20 00:34:46;;;;;;;37.25;17.58;;;0.40;99.90;;;1.44;100.00;101440.47;4947358;29;20036;-80
2024/01/20 00:37:12;;;;;;;36.72;17.67;;;0.40;99.90;;;1.38;100.00;101452.63;4941492;29;20453;-80
2024/01/20 00:39:38;;;;;;;42.92;19.55;;;0.40;99.90;;;1.47;100.00;101452.81;4940828;29;20047;-80
2024/01/20 00:42:04;;;;;;;36.55;18.02;;;0.40;99.90;;;1.51;100.00;101440.78;4942932;28;20047;-80
2024/01/20 00:44:30;;;;;;;34.05;18.17;;;0.50;99.90;;;1.33;100.00;101443.28;4939951;29;20079;-79
2024/01/20 00:46:56;;;;;;;32.63;17.13;;;0.40;99.90;;;1.50;100.00;101436.41;4942320;28;20451;-80
2024/01/20 00:49:22;;;;;;;39.70;18.02;;;0.40;99.90;;;1.34;100.00;101450.38;4940005;29;20470;-80
2024/01/20 00:51:47;;;;;;;37.97;19.05;;;0.40;99.90;;;1.38;100.00;101468.75;4947640;29;20032;-79
2024/01/20 00:54:13;;;;;;;37.20;18.05;;;0.40;99.90;;;1.44;100.00;101460.16;4936023;29;20039;-79
2024/01/20 00:56:39;;;;;;;34.67;18.40;;;0.50;99.90;;;1.52;100.00;101451.41;4943219;28;20491;-79
2024/01/20 00:59:05;;;;;;;32.70;17.65;;;0.50;99.90;;;1.50;100.00;101466.81;4948555;28;20053;-78
2024/01/20 01:01:30;;;;;;;37.47;17.50;;;0.50;99.90;;;1.49;100.00;101456.22;4937926;29;20069;-78
2024/01/20 01:03:56;;;;;;;34.70;18.48;;;0.50;99.90;;;1.48;100.00;101462.59;4947818;28;20061;-81
2024/01/20 01:06:22;;;;;;;35.70;18.15;;;0.50;99.90;;;1.35;100.00;101442.16;4949005;28;20031;-81
2024/01/20 01:08:47;;;;;;;33.53;17.08;;;0.50;99.90;;;1.50;100.00;101456.06;4951781;29;20039;-80
2024/01/20 01:11:13;;;;;;;38.65;19.00;;;0.50;99.90;;;1.51;100.00;101462.31;4942532;29;20042;-80
2024/01/20 01:13:39;;;;;;;37.83;18.70;;;0.50;99.90;;;1.50;100.00;101455.22;4937723;29;20052;-81
2024/01/20 01:16:05;;;;;;;40.60;18.38;;;0.50;99.90;;;1.36;100.00;101448.41;4943873;28;20039;-80
2024/01/20 01:18:32;;;;;;;37.15;19.15;;;0.50;99.90;;;1.51;100.00;101473.91;4945835;28;20039;-80
2024/01/20 01:20:58;;;;;;;39.38;19.20;;;0.40;99.90;;;1.43;100.00;101477.28;4939788;28;20039;-80
2024/01/20 01:23:24;;;;;;;38.88;19.13;;;0.30;99.90;;;1.32;100.00;101473.81;4948641;29;20395;-80
2024/01/20 01:25:49;;;;;;;36.78;19.25;;;0.40;99.90;;;1.47;100.00;101468.97;4943029;29;20456;-80
2024/01/20 01:28:15;;;;;;;37.35;18.67;;;0.40;99.90;;;1.35;100.00;101470.91;4934798;29;20506;-80
2024/01/20 01:30:41;;;;;;;39.17;18.83;;;0.40;99.90;;;1.40;100.00;101474.84;4940642;28;20040;-79
2024/01/20 01:33:06;;;;;;;36.10;20.23;;;0.40;99.90;;;1.47;100.00;101479.72;4940904;29;20046;-80
2024/01/20 01:35:32;;;;;;;39.30;19.95;;;0.40;99.90;;;1.40;100.00;101485.59;4938779;29;20080;-80
2024/01/20 01:37:58;;;;;;;33.72;18.83;;;0.40;99.90;;;1.39;100.00;101486.59;4944780;28;20032;-80
2024/01/20 01:40:25;;;;;;;34.80;18.80;;;0.40;99.90;;;1.41;100.00;101492.69;4948597;28;20043;-80
2024/01/20 01:42:56;;;;;;;36.17;18.52;;;0.40;99.90;;;1.41;100.00;101491.84;4944695;29;20039;-80
2024/01/20 01:45:26;;;;;;;42.00;19.77;;;0.40;99.90;;;1.39;100.00;101491.16;4945489;28;20075;-79
2024/01/20 01:47:55;;;;;;;36.85;17.77;;;0.40;99.90;;;1.39;100.00;101496.53;4941597;28;20093;-80
2024/01/20 01:50:22;;;;;;;39.83;18.52;;;0.50;99.90;;;1.52;100.00;101502.50;4940929;29;20043;-81
2024/01/20 01:52:52;;;;;;;34.25;18.65;;;0.40;99.90;;;1.50;100.00;101503.66;4938713;29;20471;-80
2024/01/20 01:55:18;;;;;;;35.25;18.83;;;0.40;99.90;;;1.41;100.00;101505.31;4941122;28;20063;-81
2024/01/20 01:57:46;;;;;;;35.83;19.00;;;0.40;99.90;;;1.39;100.00;101499.22;4963748;28;20119;-80
2024/01/20 02:00:12;;;;;;;39.63;18.88;;;0.30;99.90;;;1.25;100.00;101503.13;4944460;28;20047;-81
2024/01/20 02:02:37;;;;;;;36.55;18.80;;;0.30;99.90;;;1.31;100.00;101509.75;4954827;28;20040;-81
2024/01/20 02:05:07;;;;;;;36.03;19.08;;;0.30;99.90;;;1.41;100.00;101516.06;4935156;28;20028;-81
2024/01/20 02:07:36;;;;;;;38.15;19.02;;;0.30;99.90;;;1.41;100.00;101524.13;4941221;29;20056;-80
2024/01/20 02:10:05;;;;;;;39.38;17.98;;;0.40;99.90;;;1.39;100.00;101521.56;4946395;28;20035;-80
2024/01/20 02:12:31;;;;;;;35.63;18.73;;;0.40;99.90;;;1.44;100.00;101527.38;4943431;29;20058;-79
2024/01/20 02:14:58;;;;;;;38.17;19.10;;;0.40;99.90;;;1.35;100.00;101524.66;4944135;29;20439;-81
2024/01/20 02:17:24;;;;;;;38.35;18.98;;;0.40;99.90;;;1.52;100.00;101529.41;4940020;29;20052;-79
2024/01/20 02:19:49;;;;;;;38.58;19.85;;;0.50;99.90;;;1.65;100.00;101544.47;4938345;28;20044;-79
2024/01/20 02:22:16;;;;;;;36.70;17.90;;;0.60;99.90;;;1.52;100.00;101528.56;4951880;29;20051;-80
2024/01/20 02:24:49;;;;;;;37.22;18.52;;;0.70;99.90;;;1.69;100.00;101525.19;4953280;28;20473;-81
2024/01/20 02:27:18;;;;;;;37.65;17.90;;;0.60;99.90;;;1.69;100.00;101535.97;4963404;28;20259;-80
2024/01/20 02:29:45;;;;;;;36.92;17.77;;;0.60;99.90;;;1.79;100.00;101516.31;4945071;28;20032;-82
2024/01/20 02:32:11;;;;;;;39.90;18.85;;;0.70;99.90;;;1.52;100.00;101497.13;4959955;28;20090;-80
2024/01/20 02:34:37;;;;;;;36.40;18.38;;;0.60;99.90;;;1.61;100.00;101505.38;4952604;29;20040;-81
2024/01/20 02:37:04;;;;;;;39.67;17.85;;;0.50;99.90;;;1.39;100.00;101513.50;4942835;28;20089;-82
2024/01/20 02:39:31;;;;;;;38.17;17.85;;;0.40;99.90;;;1.40;100.00;101515.19;4954414;28;20049;-83
2024/01/20 02:41:57;;;;;;;39.58;17.20;;;0.40;99.90;;;1.46;100.00;101521.88;4949401;28;20043;-81
2024/01/20 02:44:22;;;;;;;33.53;16.67;;;0.40;99.90;;;1.46;100.00;101521.00;4938178;29;20047;-84
2024/01/20 02:46:48;;;;;;;33.25;16.38;;;0.40;99.90;;;1.42;100.00;101507.84;4952437;29;20039;-82
2024/01/20 02:49:14;;;;;;;32.90;17.20;;;0.30;99.90;;;1.40;100.00;101522.44;4967892;28;20027;-81
2024/01/20 02:51:39;;;;;;;34.15;17.25;;;0.30;99.90;;;1.38;100.00;101516.34;4947634;28;20042;-81
2024/01/20 02:54:05;;;;;;;37.75;17.45;;;0.50;99.90;;;1.46;100.00;101529.06;4947464;29;20047;-82
2024/01/20 02:56:31;;;;;;;39.92;16.75;;;0.50;99.90;;;1.37;100.00;101528.06;4945397;29;20039;-79
2024/01/20 02:58:56;;;;;;;38.00;17.20;;;0.50;99.90;;;1.47;100.00;101515.50;4947696;29;20035;-81
2024/01/20 03:01:22;;;;;;;35.20;16.77;;;0.50;99.90;;;1.55;100.00;101522.91;4940809;29;20399;-81
2024/01/20 03:03:48;;;;;;;32.80;16.10;;;0.50;99.90;;;1.41;100.00;101508.81;4967841;28;20471;-81
2024/01/20 03:06:14;;;;;;;31.83;15.70;;;0.50;99.90;;;1.49;100.00;101532.34;4952475;28;20035;-81
2024/01/20 03:08:39;;;;;;;35.60;16.48;;;0.40;99.90;;;1.50;100.00;101514.41;4947718;29;20035;-81
2024/01/20 03:11:05;;;;;;;38.25;17.02;;;0.40;99.90;;;1.42;100.00;101509.69;4940879;28;20043;-82
2024/01/20 03:13:31;;;;;;;36.15;16.98;;;0.40;99.90;;;1.49;100.00;101518.91;4936532;29;20043;-82
2024/01/20 03:15:56;;;;;;;36.30;17.05;;;0.30;99.90;;;1.43;100.00;101520.28;4942521;29;20035;-82
2024/01/20 03:18:22;;;;;;;32.17;16.05;;;0.30;99.90;;;1.41;100.00;101495.38;4942387;29;20142;-81
2024/01/20 03:20:48;;;;;;;37.22;16.55;;;0.30;99.90;;;1.41;100.00;101503.44;4949442;29;20506;-81
2024/01/20 03:23:13;;;;;;;38.70;16.90;;;0.30;99.90;;;1.43;100.00;101511.41;4944172;29;20531;-81
2024/01/20 03:25:39;;;;;;;37.40;17.25;;;0.30;99.90;;;1.32;100.00;101504.28;4954879;28;20027;-81
2024/01/20 03:28:05;;;;;;;35.00;16.80;;;0.30;99.90;;;1.41;100.00;101508.81;4944997;29;20406;-81
2024/01/20 03:30:31;;;;;;;35.90;16.90;;;0.40;99.90;;;1.39;100.00;101518.03;4937267;28;20404;-82
2024/01/20 03:32:57;;;;;;;39.15;18.23;;;0.30;99.90;;;1.36;100.00;101518.31;4946885;29;20039;-82
2024/01/20 03:35:23;;;;;;;37.20;16.63;;;0.30;99.90;;;1.33;100.00;101513.19;4934410;29;20047;-82
2024/01/20 03:37:49;;;;;;;33.28;15.77;;;0.30;99.90;;;1.50;100.00;101528.69;4945970;29;20055;-82
2024/01/20 03:40:15;;;;;;;39.90;17.10;;;0.30;99.90;;;1.39;100.00;101504.59;4946074;28;20051;-81
2024/01/20 03:42:40;;;;;;;43.38;17.83;;;0.30;99.90;;;1.43;100.00;101540.97;4945863;29;20118;-81
2024/01/20 03:45:06;;;;;;;38.83;17.30;;;0.30;99.90;;;1.34;100.00;101528.34;4960915;28;20440;-83
2024/01/20 03:47:32;;;;;;;34.72;16.92;;;0.30;99.90;;;1.42;100.00;101555.41;4936949;29;20042;-81
2024/01/20 03:49:58;;;;;;;37.85;16.90;;;0.30;99.90;;;1.48;100.00;101541.41;4951694;29;20035;-82
2024/01/20 03:52:24;;;;;;;35.70;16.52;;;0.40;99.90;;;1.36;100.00;101539.81;4951524;29;20043;-84
2024/01/20 03:54:50;;;;;;;34.55;16.95;;;0.30;99.90;;;1.23;100.00;101540.88;4947107;28;20094;-81
2024/01/20 03:57:15;;;;;;;36.30;16.83;;;0.40;99.90;;;1.32;100.00;101554.50;4965009;28;20032;-81
2024/01/20 03:59:41;;;;;;;36.55;16.98;;;0.30;99.90;;;1.21;100.00;101536.63;4937179;29;20024;-82
2024/01/20 04:02:07;;;;;;;38.38;16.63;;;0.30;99.90;;;1.36;100.00;101564.03;4945783;29;20506;-81
2024/01/20 04:04:36;;;;;;;40.15;17.73;;;0.30;99.90;;;1.36;100.00;101558.66;4939199;28;20085;-82
2024/01/20 04:07:01;;;;;;;37.30;17.27;;;0.30;99.90;;;1.31;100.00;101553.66;4965590;28;20039;-81
2024/01/20 04:09:27;;;;;;;35.70;16.55;;;0.30;99.90;;;1.42;100.00;101553.56;4948793;29;20118;-81
2024/01/20 04:11:53;;;;;;;40.92;17.25;;;0.40;99.90;;;1.32;100.00;101562.56;4941116;29;20035;-82
2024/01/20 04:14:18;;;;;;;36.85;16.55;;;0.40;99.90;;;1.22;100.00;101544.53;4955600;28;20036;-81
2024/01/20 04:16:44;;;;;;;36.25;16.75;;;0.30;99.90;;;1.26;100.00;101554.03;4947841;29;20043;-81
2024/01/20 04:19:10;;;;;;;35.95;16.83;;;0.30;99.90;;;1.31;100.00;101577.84;4944190;28;20035;-81
2024/01/20 04:21:35;;;;;;;40.72;17.65;;;0.40;99.90;;;1.33;100.00;101556.22;4943861;28;20036;-81
2024/01/20 04:24:01;;;;;;;37.00;17.02;;;0.40;99.90;;;1.43;100.00;101568.69;4960288;28;20097;-82
2024/01/20 04:26:27;;;;;;;35.72;16.80;;;0.40;99.90;;;1.42;100.00;101574.22;4947787;28;20038;-82
2024/01/20 04:28:52;;;;;;;34.17;17.10;;;0.30;99.90;;;1.36;100.00;101556.78;4936912;28;20047;-83
2024/01/20 04:31:18;;;;;;;37.63;16.73;;;0.40;99.90;;;1.17;100.00;101552.16;4944350;29;20573;-83
2024/01/20 04:33:44;;;;;;;37.03;16.60;;;0.40;99.90;;;1.39;100.00;101585.25;4946509;28;20064;-81
2024/01/20 04:36:10;;;;;;;35.85;16.65;;;0.40;99.90;;;1.35;100.00;101559.63;4948312;28;20105;-82
2024/01/20 04:38:36;;;;;;;36.03;16.00;;;0.40;99.90;;;1.47;100.00;101581.91;4951525;28;20043;-82
2024/01/20 04:41:01;;;;;;;43.78;17.33;;;0.40;99.90;;;1.42;100.00;101572.38;4949289;28;20058;-82
2024/01/20 04:43:28;;;;;;;34.70;15.35;;;0.30;99.90;;;1.49;100.00;101566.50;4936117;29;20082;-82
2024/01/20 04:45:54;;;;;;;34.15;16.33;;;0.40;99.90;;;1.39;100.00;101580.72;4948560;29;20042;-81
2024/01/20 04:48:20;;;;;;;32.90;15.63;;;0.40;99.90;;;1.47;100.00;101589.97;4946539;28;20043;-82
2024/01/20 04:50:45;;;;;;;35.95;16.13;;;0.30;99.90;;;1.38;100.00;101597.00;4941427;28;20036;-82
2024/01/20 04:53:11;;;;;;;32.50;15.85;;;0.30;99.90;;;1.40;100.00;101595.03;4939328;29;20408;-82
2024/01/20 04:55:37;;;;;;;34.15;15.93;;;0.20;99.90;;;1.23;100.00;101580.38;4936077;29;20071;-81
2024/01/20 04:58:03;;;;;;;34.10;15.38;;;0.10;99.90;;;1.33;100.00;101607.31;4948260;28;20047;-81
2024/01/20 05:00:28;;;;;;;34.97;16.50;;;0.10;99.90;;;1.22;100.00;101592.09;4935797;28;20049;-81
2024/01/20 05:02:55;;;;;;;30.50;15.90;;;0.00;99.90;;;1.11;100.00;101585.78;4941328;28;20044;-82
2024/01/20 05:05:20;;;;;;;41.25;16.95;;;-0.10;99.90;;;1.07;100.00;101588.91;4950876;28;20098;-82
2024/01/20 05:07:46;;;;;;;39.88;16.75;;;-0.10;99.90;;;0.95;100.00;101606.91;4946193;28;20038;-82
2024/01/20 05:10:12;;;;;;;34.90;16.52;;;-0.20;99.90;;;0.95;100.00;101602.38;4956732;28;20047;-83
2024/01/20 05:12:37;;;;;;;36.25;17.58;;;-0.20;99.90;;;0.84;100.00;101608.66;4958804;28;20046;-83
2024/01/20 05:15:07;;;;;;;33.40;15.57;;;-0.20;99.90;;;1.02;100.00;101617.97;4944720;28;20539;-83
2024/01/20 05:17:32;;;;;;;33.67;17.20;;;-0.20;99.90;;;0.88;100.00;101622.69;4948226;29;20431;-83
2024/01/20 05:19:58;;;;;;;31.90;17.23;;;-0.20;99.90;;;0.86;100.00;101611.22;4943277;29;20035;-83
2024/01/20 05:22:24;;;;;;;36.15;17.67;;;-0.20;99.90;;;0.77;100.00;101620.03;4943109;29;20032;-82
2024/01/20 05:24:49;;;;;;;40.70;16.40;;;-0.20;99.90;;;0.75;100.00;101597.81;4945757;29;20043;-83
2024/01/20 05:27:15;;;;;;;36.28;17.48;;;-0.20;99.90;;;0.77;100.00;101625.41;4943663;28;20043;-82
2024/01/20 05:29:41;;;;;;;32.97;16.25;;;-0.20;99.90;;;0.76;100.00;101626.41;4948700;29;20055;-80
2024/01/20 05:32:07;;;;;;;30.67;15.07;;;-0.30;99.90;;;0.54;100.00;101618.31;4950680;28;20408;-79
2024/01/20 05:34:32;;;;;;;35.95;16.98;;;-0.30;99.90;;;0.78;100.00;101629.81;4939095;28;20114;-81
2024/01/20 05:36:58;;;;;;;32.47;15.30;;;-0.30;99.90;;;0.69;100.00;101613.47;4938746;28;20032;-81
2024/01/20 05:39:24;;;;;;;32.75;15.88;;;-0.40;99.90;;;0.58;100.00;101616.22;4945510;29;20035;-81
2024/01/20 05:41:50;;;;;;;35.55;15.77;;;-0.40;99.90;;;0.60;100.00;101622.31;4948835;28;20043;-83
2024/01/20 05:44:15;;;;;;;31.73;16.15;;;-0.40;99.90;;;0.49;100.00;101611.59;4944876;29;20062;-83
2024/01/20 05:46:41;;;;;;;29.77;15.15;;;-0.40;99.90;;;0.66;100.00;101637.06;4938963;29;20050;-83
2024/01/20 05:49:07;;;;;;;32.22;15.57;;;-0.40;99.90;;;0.41;100.00;101618.47;4940514;29;20046;-84
2024/01/20 05:51:33;;;;;;;29.52;15.23;;;-0.40;99.90;;;0.66;100.00;101640.59;4952722;28;20047;-84
2024/01/20 05:53:58;;;;;;;27.58;15.10;;;-0.40;99.90;;;0.55;100.00;101622.69;4960163;28;20157;-83
2024/01/20 05:56:24;;;;;;;32.67;15.23;;;-0.40;99.90;;;0.43;100.00;101635.28;4962301;28;20130;-83
2024/01/20 05:58:50;;;;;;;30.27;14.98;;;-0.50;99.90;;;0.53;100.00;101645.28;4950701;28;20059;-83
2024/01/20 06:01:17;;;;;;;37.00;15.63;;;-0.50;99.90;;;0.57;100.00;101662.88;4950551;28;20051;-81
2024/01/20 06:03:42;;;;;;;31.42;15.13;;;-0.50;99.90;;;0.53;100.00;101658.69;4947030;29;20470;-81
2024/01/20 06:06:08;;;;;;;31.42;15.32;;;-0.60;99.90;;;0.49;100.00;101647.38;4952088;28;20047;-81
2024/01/20 06:08:34;;;;;;;30.25;15.00;;;-0.50;99.90;;;0.53;100.00;101656.88;4948364;28;20047;-82
2024/01/20 06:10:59;;;;;;;30.77;15.48;;;-0.50;99.90;;;0.54;100.00;101657.75;4948330;28;20032;-83
2024/01/20 06:13:25;;;;;;;35.75;14.35;;;-0.60;99.90;;;0.55;100.00;101670.19;4948482;29;20023;-82
2024/01/20 06:15:51;;;;;;;35.22;15.23;;;-0.60;99.90;;;0.52;100.00;101676.66;4939639;29;20484;-82
2024/01/20 06:18:16;;;;;;;30.25;14.35;;;-0.60;99.90;;;0.50;100.00;101669.69;4938153;29;20094;-82
2024/01/20 06:20:42;;;;;;;32.65;14.93;;;-0.60;99.90;;;0.33;100.00;101674.63;4942982;29;20418;-81
2024/01/20 06:23:08;;;;;;;30.23;14.65;;;-0.60;99.90;;;0.40;100.00;101662.41;4945317;28;20044;-83
2024/01/20 06:25:34;;;;;;;35.03;14.82;;;-0.60;99.90;;;0.38;100.00;101658.13;4948812;28;20043;-82
2024/01/20 06:28:00;;;;;;;33.13;14.57;;;-0.60;99.90;;;0.34;100.00;101681.69;4953993;28;20104;-81
2024/01/20 06:30:25;;;;;;;31.30;14.15;;;-0.70;99.90;;;0.07;100.00;101649.88;4958273;28;20087;-82
2024/01/20 06:32:51;;;;;;;28.27;13.95;;;-0.70;99.90;;;0.32;100.00;101680.97;4969159;28;20035;-81
2024/01/20 06:35:17;;;;;;;31.15;14.50;;;-0.70;99.90;;;0.38;100.00;101682.28;4967547;28;20470;-81
2024/01/20 06:37:42;;;;;;;30.13;13.93;;;-0.70;99.90;;;0.35;100.00;101679.84;4953297;28;20055;-82
2024/01/20 06:40:09;;;;;;;31.33;13.95;;;-0.70;99.90;;;0.32;100.00;101680.09;4942095;29;20493;-76
2024/01/20 06:42:34;;;;;;;28.48;13.38;;;-0.70;99.90;;;0.41;100.00;101685.59;4946434;28;20062;-78
2024/01/20 06:45:00;;;;;;;31.25;14.13;;;-0.60;99.90;;;0.23;100.00;101668.28;4965256;28;20039;-77
2024/01/20 06:47:26;;;;;;;27.15;13.30;;;-0.60;99.90;;;0.30;100.00;101704.41;4949257;28;20403;-78
2024/01/20 06:49:53;;;;;;;27.13;12.95;;;-0.70;99.90;;;0.25;100.00;101688.66;4944224;28;20035;-81
2024/01/20 06:52:20;;;;;;;27.90;13.55;;;-0.70;99.90;;;0.28;100.00;101696.47;4944030;28;20040;-82
2024/01/20 06:54:46;;;;;;;28.15;12.80;;;-0.70;99.90;;;0.13;100.00;101703.91;4947985;29;20095;-81
2024/01/20 06:57:12;;;;;;;25.60;13.02;;;-0.70;99.90;;;0.21;100.00;101697.06;4948549;29;20447;-82
2024/01/20 06:59:38;;;;;;;25.08;12.65;;;-0.60;99.90;;;0.31;100.00;101706.13;4953121;28;20138;-81
2024/01/20 07:02:04;;;;;;;26.88;12.20;;;-0.70;99.90;;;0.22;100.00;101707.69;4951087;29;20047;-82
2024/01/20 07:04:30;;;;;;;26.98;13.68;;;-0.80;99.90;;;0.09;100.00;101698.91;4959846;28;20070;-81
2024/01/20 07:06:56;;;;;;;25.00;13.32;;;-0.80;99.90;;;0.11;100.00;101713.91;4965680;28;20035;-81
2024/01/20 07:09:22;;;;;;;29.25;13.50;;;-0.80;99.90;;;0.13;100.00;101709.28;4939762;28;20050;-82
2024/01/20 07:11:48;;;;;;;26.85;13.60;;;-0.80;99.90;;;0.02;100.00;101703.94;4950422;29;20032;-81
2024/01/20 07:14:13;;;;;;;26.50;13.38;;;-0.80;99.90;;;0.05;100.00;101711.72;4942753;29;20048;-81
2024/01/20 07:16:39;;;;;;;32.78;13.63;;;-0.80;99.90;;;0.04;100.00;101725.25;4953200;28;20046;-77
2024/01/20 07:19:04;;;;;;;25.88;13.30;;;-0.80;99.90;;;0.14;100.00;101731.63;4945128;28;20044;-78
2024/01/20 07:21:30;;;;;;;31.30;12.52;;;-0.80;99.90;;;0.04;100.00;101727.94;4945459;29;20376;-78
2024/01/20 07:23:56;;;;;;;26.15;13.27;;;-0.80;99.90;;;0.06;100.00;101723.31;4947359;29;20075;-78
2024/01/20 07:26:22;;;;;;;28.35;14.02;;;-0.80;99.90;;;0.04;100.00;101714.53;4944718;29;20039;-81
2024/01/20 07:28:47;;;;;;;33.60;14.00;;;-0.80;99.90;;;0.04;100.00;101727.94;4942994;29;20475;-81
2024/01/20 07:31:13;;;;;;;28.55;14.15;;;-0.90;99.90;;;0.05;100.00;101711.72;4936228;29;20036;-80
2024/01/20 07:33:40;;;;;;;33.17;13.75;;;-0.80;99.90;;;0.18;100.00;101730.41;4938006;29;20543;-81
2024/01/20 07:36:06;;;;;;;29.58;13.25;;;-0.80;99.90;;;-0.02;100.00;101727.47;4961206;28;20097;-83
2024/01/20 07:38:32;;;;;;;32.17;13.77;;;-0.80;99.90;;;0.19;100.00;101734.78;4947570;28;20039;-82
2024/01/20 07:40:59;;;;;;;29.42;14.18;;;-0.80;99.90;;;0.17;100.00;101719.78;4949792;28;20058;-81
2024/01/20 07:43:25;;;;;;;31.20;14.30;;;-0.70;99.90;;;0.29;100.00;101740.28;4949339;29;20058;-82
2024/01/20 07:45:54;;;;;;;30.67;14.23;;;-0.70;99.90;;;0.27;100.00;101726.13;4969082;28;20171;-83
2024/01/20 07:48:20;;;;;;;28.17;14.00;;;-0.70;99.90;;;0.35;100.00;101734.41;4949549;29;20405;-83
2024/01/20 07:50:46;;;;;;;34.20;13.73;;;-0.70;99.90;;;0.17;100.00;101715.28;4941469;29;20043;-83
2024/01/20 07:53:12;;;;;;;30.33;14.32;;;-0.70;99.90;;;0.35;100.00;101734.41;4939178;29;20082;-83
2024/01/20 07:55:37;;;;;;;30.45;13.80;;;-0.70;99.90;;;0.35;100.00;101745.16;4942668;29;20098;-82
2024/01/20 07:58:03;;;;;;;27.75;13.18;;;-0.70;99.90;;;0.37;100.00;101756.63;4954348;28;20043;-84
2024/01/20 08:00:29;;;;;;;28.88;14.18;;;-0.60;99.90;;;0.47;100.00;101759.44;4941498;28;20110;-83
2024/01/20 08:02:54;;;;;;;30.30;14.43;;;-0.50;99.90;;;0.42;100.00;101758.94;4948448;28;20036;-84
2024/01/20 08:05:20;;;;;;;36.40;16.13;;;-0.50;99.90;;;0.50;100.00;101761.00;4963954;28;20043;-83
2024/01/20 08:07:46;;;;;;;27.83;14.23;;;-0.40;99.90;;;0.47;100.00;101753.19;4968854;28;20523;-85
2024/01/20 08:10:12;;;;;;;29.13;13.52;;;-0.40;99.90;;;0.66;100.00;101774.91;4968897;28;20494;-83
2024/01/20 08:12:38;;;;;;;33.95;14.55;;;-0.30;99.90;;;0.65;100.00;101767.84;4954399;28;20043;-85
2024/01/20 08:15:05;;;;;;;28.27;14.52;;;-0.30;99.90;;;0.65;100.00;101766.97;4953469;28;20085;-84
2024/01/20 08:17:31;;;;;;;28.05;14.13;;;-0.30;99.90;;;0.62;100.00;101760.03;4962037;28;20079;-81
2024/01/20 08:19:57;;;;;;;28.60;13.85;;;-0.20;99.90;;;0.66;100.00;101776.72;4953324;28;20031;-81
2024/01/20 08:22:22;;;;;;;30.58;13.20;;;-0.20;99.90;;;0.62;100.00;101781.50;4953488;28;20110;-79
2024/01/20 08:24:48;;;;;;;33.92;15.23;;;-0.10;99.90;;;0.70;100.00;101779.06;4940047;29;20558;-79
2024/01/20 08:27:14;;;;;;;30.95;14.90;;;-0.10;99.90;;;0.82;100.00;101768.31;4951398;29;20047;-81
2024/01/20 08:29:41;;;;;;;28.80;14.13;;;-0.10;99.90;;;0.90;100.00;101784.66;4949774;28;20415;-80
2024/01/20 08:32:07;;;;;;;28.92;13.82;;;0.00;99.90;;;0.91;100.00;101799.78;4936478;29;20042;-80
2024/01/20 08:34:33;;;;;;;29.23;14.65;;;0.00;99.90;;;1.09;100.00;101786.69;4941023;29;20050;-81
2024/01/20 08:36:58;;;;;;;35.20;15.13;;;0.10;99.90;;;0.88;100.00;101783.06;4966525;28;20057;-78
2024/01/20 08:39:24;;;;;;;28.92;13.82;;;0.10;99.90;;;1.04;100.00;101796.09;4943270;29;20112;-79
2024/01/20 08:41:50;;;;;;;30.33;14.82;;;0.20;99.90;;;0.97;100.00;101788.53;4939917;29;20090;-79
2024/01/20 08:44:16;;;;;;;28.88;15.00;;;0.20;99.90;;;1.21;100.00;101802.78;4944059;28;20057;-79
2024/01/20 08:46:41;;;;;;;32.38;14.55;;;0.20;99.90;;;1.32;100.00;101804.56;4963454;28;20043;-80
2024/01/20 08:49:07;;;;;;;31.42;15.70;;;0.30;99.90;;;1.34;100.00;101813.38;4949505;29;20090;-79
2024/01/20 08:51:33;;;;;;;29.98;14.00;;;0.30;99.90;;;1.27;100.00;101819.25;4956988;28;20034;-78
2024/01/20 08:53:58;;;;;;;31.42;14.77;;;0.40;99.90;;;1.33;100.00;101811.69;4940117;29;20051;-79
2024/01/20 08:56:25;;;;;;;30.00;13.85;;;0.40;99.90;;;1.20;100.00;101791.16;4946591;29;20035;-79
2024/01/20 08:58:50;;;;;;;32.97;13.85;;;0.40;99.90;;;1.34;100.00;101799.94;4944349;28;20160;-79
2024/01/20 09:01:17;;;;;;;28.60;13.45;;;0.50;99.90;;;1.34;100.00;101816.91;4942629;29;20035;-79
2024/01/20 09:03:42;;;;;;;25.95;13.60;;;0.50;99.90;;;1.27;100.00;101819.25;4939664;29;20039;-78
2024/01/20 09:06:12;;;;;;;30.65;13.63;;;0.50;99.90;;;1.37;100.00;101818.50;4936259;28;20095;-79
2024/01/20 09:08:37;;;;;;;30.52;13.98;;;0.60;99.90;;;1.40;100.00;101819.06;4967400;28;20230;-79
2024/01/20 09:11:03;;;;;;;29.63;13.23;;;0.60;99.90;;;1.65;100.00;101817.03;4948454;28;20053;-80
2024/01/20 09:13:29;;;;;;;29.65;13.15;;;0.60;99.90;;;1.70;100.00;101806.72;4937474;28;20452;-79
2024/01/20 09:15:55;;;;;;;31.60;13.30;;;0.70;99.90;;;1.78;100.00;101803.38;4944607;29;20043;-80
2024/01/20 09:18:20;;;;;;;26.90;13.00;;;0.80;99.90;;;1.58;100.00;101805.91;4938861;28;20652;-80
2024/01/20 09:20:46;;;;;;;26.88;12.82;;;0.80;99.90;;;1.77;100.00;101803.53;4939002;29;20102;-78
2024/01/20 09:23:12;;;;;;;26.10;12.40;;;0.90;99.90;;;1.84;100.00;101816.31;4948570;28;20059;-80
2024/01/20 09:25:38;;;;;;;24.13;11.32;;;0.90;99.90;;;1.69;100.00;101809.56;4936236;29;20063;-80
2024/01/20 09:28:05;;;;;;;27.70;13.00;;;1.00;99.90;;;1.94;100.00;101820.94;4939157;28;20047;-80
2024/01/20 09:30:31;;;;;;;23.17;11.40;;;1.00;99.90;;;2.07;100.00;101820.75;4938400;29;20031;-80
2024/01/20 09:32:57;;;;;;;24.00;11.38;;;1.10;99.90;;;1.88;100.00;101808.00;4941661;28;20377;-81
2024/01/20 09:35:23;;;;;;;26.98;11.60;;;1.10;99.90;;;2.00;100.00;101836.56;4939685;29;20078;-80
2024/01/20 09:37:49;;;;;;;26.98;12.82;;;1.20;99.90;;;2.22;100.00;101829.31;4936307;29;20416;-79
2024/01/20 09:40:18;;;;;;;30.60;12.80;;;1.20;99.90;;;2.35;100.00;101838.03;4937431;29;20934;-79
2024/01/20 09:42:44;;;;;;;25.00;12.23;;;1.30;99.90;;;2.48;100.00;101847.75;4938643;29;20063;-80
2024/01/20 09:45:11;;;;;;;22.58;11.95;;;1.40;99.90;;;2.46;100.00;101836.25;4945561;28;20059;-80
2024/01/20 09:47:37;;;;;;;22.02;11.38;;;1.50;99.90;;;2.73;100.00;101852.69;4940068;29;20106;-79
2024/01/20 09:50:04;;;;;;;29.27;12.50;;;1.90;99.90;;;2.66;100.00;101819.19;4944787;28;20035;-81
2024/01/20 09:52:31;;;;;;;21.60;11.18;;;2.40;99.90;;;3.08;100.00;101860.47;4947868;29;20067;-80
2024/01/20 09:55:21;;;;;;;24.38;12.27;;;2.90;99.90;;;3.32;100.00;101846.63;4944222;28;20055;-80
2024/01/20 09:57:49;;;;;;;22.40;10.82;;;3.40;99.90;;;4.20;100.00;101842.19;4954663;28;20040;-80